Bramon, Sweden

7:49 AM CET on March 23, 2017 (GMT +0100)
Sundsvall Municipality | | Change Station

Elev 0 ft 62.41 °N, 17.52 °E | Updated 9 minutes ago

Clear
Clear
30.4 °F
Feels Like 30 °F
N
1.2
Wind Variable Wind from NNW
Gusts 6.8 mph

Today
High -- | Low -- °F
--% Chance of Precip.
Yesterday
High -- | Low -- °F
Precip. -- in
Pressure 29.92 in
Visibility -9999.0 miles
Clouds
Windchill 30 °F
Dew Point 21 °F
Humidity 67%
Rainfall Not available.
Snow Depth Not available.
5:40 AM 6:12 PM
Waning Crescent, 26% visible
METAR ESNN 230620Z 20002KT CAVOK M00/M08 Q1013 R16/09//95
Pressure 29.92 in
Visibility -9999.0 miles
Clouds
Windchill 30 °F
Dew Point 21 °F
Humidity 67%
Rainfall Not available.
Snow Depth Not available.
5:40 AM 6:12 PM
Waning Crescent, 26% visible
METAR ESNN 230620Z 20002KT CAVOK M00/M08 Q1013 R16/09//95

Get Severe Weather Alerts

Thanks for signing up!

Be on the lookout for a verification email in your inbox.

You'll start receiving the daily forecast at 8 AM.

×

10-Day Weather Forecast

×

Almanac

Astronomy

Mar. 23, 2017 Rise Set
Actual Time
Civil Twilight
Nautical Twilight
Astronomical Twilight
Moon
Length of Visible Light
Length of Day
Tomorrow will be .
, % of the Moon is Illuminated

Today's Extremes

Country Highs Country Lows

Community

WunderPhotos

Upload Photos

1,962,540 photos uploaded!

WunderBlog® & News

Nearby

Air Quality

  Air Quality AQ Index Pollutant
Not available.

Snow Depth

Station Depth Elevation

Earthquake Activity

City Distance Mag. Time & Date
Minimum magnitude displayed is 2.5.

Earthquake Activity

City Distance Mag. Time & Date
Minimum magnitude displayed is 2.5.

Coastal Water Temperatures

Place Temperature

Stations

Nearby Weather Stations

Station Location Temp. Windchill Dew Point Humidity Wind Precip. Elev Updated Type